Time;durP1;ratioP1;P1;durP2;ratioP2;P2;SDS_P1;SDS_P2;PMS_P1;PMS_P2;Temp;Humidity;BMP_temperature;BMP_pressure;BME280_temperature;BME280_humidity;BME280_pressure;Samples;Min_cycle;Max_cycle;Signal;HPM_P1;HPM_P2
2022/06/17 00:01:04;;;;;;;22.87;21.50;;;;;;;;;;5033535;28;20441;-80
2022/06/17 00:03:33;;;;;;;22.60;21.40;;;;;;;;;;5033712;28;20423;-80
2022/06/17 00:06:02;;;;;;;23.30;22.00;;;;;;;;;;5033580;28;20508;-80
2022/06/17 00:08:31;;;;;;;22.70;21.50;;;;;;;;;;5033332;28;20462;-79
2022/06/17 00:11:00;;;;;;;22.80;21.50;;;;;;;;;;5033237;28;20456;-80
2022/06/17 00:13:27;;;;;;;23.67;22.10;;;;;;;;;;5033625;28;20440;-80
2022/06/17 00:15:55;;;;;;;23.90;22.23;;;;;;;;;;5033449;28;20438;-80
2022/06/17 00:18:23;;;;;;;24.00;22.70;;;;;;;;;;5033798;28;20816;-80
2022/06/17 00:20:51;;;;;;;23.70;22.20;;;;;;;;;;5033186;28;20518;-80
2022/06/17 00:23:21;;;;;;;23.00;21.70;;;;;;;;;;5033123;28;20464;-80
2022/06/17 00:25:49;;;;;;;23.57;22.00;;;;;;;;;;5033014;28;20977;-80
2022/06/17 00:28:19;;;;;;;23.83;22.43;;;;;;;;;;5033283;28;20470;-79
2022/06/17 00:30:47;;;;;;;24.40;22.90;;;;;;;;;;5033077;28;20448;-80
2022/06/17 00:33:14;;;;;;;23.30;22.03;;;;;;;;;;5032929;28;20929;-80
2022/06/17 00:35:45;;;;;;;23.70;22.20;;;;;;;;;;5032986;28;20885;-80
2022/06/17 00:38:13;;;;;;;24.47;22.80;;;;;;;;;;5032931;28;20455;-80
2022/06/17 00:40:41;;;;;;;25.70;23.83;;;;;;;;;;5032840;28;20933;-80
2022/06/17 00:43:12;;;;;;;24.03;22.73;;;;;;;;;;5033081;28;20769;-80
2022/06/17 00:45:46;;;;;;;23.30;22.00;;;;;;;;;;5032806;28;20452;-80
2022/06/17 00:48:15;;;;;;;24.70;23.17;;;;;;;;;;5033055;28;20493;-80
2022/06/17 00:50:47;;;;;;;23.93;22.63;;;;;;;;;;5032709;28;20845;-80
2022/06/17 00:53:18;;;;;;;23.67;22.03;;;;;;;;;;5032676;28;20443;-80
2022/06/17 00:55:48;;;;;;;23.93;22.43;;;;;;;;;;5032660;28;20938;-80
2022/06/17 00:58:19;;;;;;;22.90;21.50;;;;;;;;;;5032710;28;20809;-80
2022/06/17 01:00:49;;;;;;;22.93;21.70;;;;;;;;;;5032969;28;20437;-80
2022/06/17 01:03:19;;;;;;;23.07;21.77;;;;;;;;;;5032742;28;20415;-80
2022/06/17 01:05:50;;;;;;;23.33;21.93;;;;;;;;;;5032460;28;20458;-80
2022/06/17 01:09:57;;;;;;;23.43;22.13;;;;;;;;;;5031966;28;20466;-80
2022/06/17 01:11:11;;;;;;;23.60;22.20;;;;;;;;;;5032489;28;21003;-80
2022/06/17 01:13:38;;;;;;;23.87;22.57;;;;;;;;;;5032592;28;20419;-79
2022/06/17 01:16:07;;;;;;;23.13;21.93;;;;;;;;;;5032700;28;20785;-80
2022/06/17 01:18:38;;;;;;;23.67;22.37;;;;;;;;;;5032706;28;20447;-80
2022/06/17 01:21:20;;;;;;;23.80;22.30;;;;;;;;;;5032646;28;20889;-81
2022/06/17 01:23:49;;;;;;;23.40;22.20;;;;;;;;;;5032524;28;20510;-80
2022/06/17 01:26:17;;;;;;;23.70;22.50;;;;;;;;;;5032634;28;20454;-81
2022/06/17 01:28:45;;;;;;;23.60;22.20;;;;;;;;;;5032803;28;20459;-80
2022/06/17 01:31:12;;;;;;;24.37;23.00;;;;;;;;;;5033007;28;20422;-81
2022/06/17 01:33:41;;;;;;;22.83;21.63;;;;;;;;;;5032627;28;20410;-81
2022/06/17 01:36:12;;;;;;;23.33;22.07;;;;;;;;;;5032692;28;20434;-80
2022/06/17 01:38:41;;;;;;;22.73;21.50;;;;;;;;;;5032324;28;20541;-81
2022/06/17 01:41:09;;;;;;;23.60;22.30;;;;;;;;;;5032504;28;20425;-81
2022/06/17 01:43:40;;;;;;;24.27;22.97;;;;;;;;;;5032136;28;20750;-81
2022/06/17 01:46:09;;;;;;;23.73;22.40;;;;;;;;;;5032474;28;20418;-80
2022/06/17 01:48:39;;;;;;;22.87;21.57;;;;;;;;;;5032107;28;20594;-81
2022/06/17 01:51:07;;;;;;;23.70;22.27;;;;;;;;;;5032522;28;20510;-81
2022/06/17 01:53:36;;;;;;;23.20;21.80;;;;;;;;;;5032058;28;20440;-81
2022/06/17 01:56:06;;;;;;;22.43;21.13;;;;;;;;;;5032414;28;20422;-81
2022/06/17 01:58:36;;;;;;;23.63;22.20;;;;;;;;;;5032358;28;20419;-81
2022/06/17 02:01:04;;;;;;;23.43;22.23;;;;;;;;;;5032072;28;20444;-81
2022/06/17 02:03:33;;;;;;;23.70;22.20;;;;;;;;;;5031872;28;20434;-81
2022/06/17 02:06:06;;;;;;;22.93;21.60;;;;;;;;;;5032247;28;20446;-81
2022/06/17 02:08:34;;;;;;;23.87;22.60;;;;;;;;;;5032181;28;20493;-81
2022/06/17 02:11:03;;;;;;;23.00;21.60;;;;;;;;;;5031907;28;20423;-80
2022/06/17 02:13:32;;;;;;;22.80;21.30;;;;;;;;;;5014242;28;20477;-80
2022/06/17 02:16:01;;;;;;;22.80;21.57;;;;;;;;;;5014463;28;20452;-80
2022/06/17 02:18:29;;;;;;;22.90;21.70;;;;;;;;;;5031844;28;20889;-80
2022/06/17 02:20:58;;;;;;;22.23;21.13;;;;;;;;;;5034769;28;21069;-80
2022/06/17 02:23:27;;;;;;;22.50;21.30;;;;;;;;;;5035900;28;20799;-80
2022/06/17 02:25:56;;;;;;;23.50;22.20;;;;;;;;;;5035653;28;20464;-80
2022/06/17 02:28:24;;;;;;;23.20;21.90;;;;;;;;;;5035253;28;20484;-80
2022/06/17 02:30:52;;;;;;;23.37;22.17;;;;;;;;;;5035557;28;20436;-80
2022/06/17 02:33:23;;;;;;;22.80;21.40;;;;;;;;;;5035245;28;20452;-80
2022/06/17 02:35:53;;;;;;;23.77;22.47;;;;;;;;;;5035225;28;20423;-80
2022/06/17 02:38:25;;;;;;;23.60;22.30;;;;;;;;;;5035105;28;20481;-80
2022/06/17 02:40:53;;;;;;;23.47;22.17;;;;;;;;;;5035209;28;20429;-81
2022/06/17 02:43:22;;;;;;;23.77;22.47;;;;;;;;;;5035354;28;20812;-80
2022/06/17 02:45:52;;;;;;;23.00;21.80;;;;;;;;;;5035358;28;20439;-81
2022/06/17 02:48:21;;;;;;;23.97;22.33;;;;;;;;;;5034871;28;20830;-80
2022/06/17 02:50:50;;;;;;;23.40;22.20;;;;;;;;;;5017189;28;20427;-80
2022/06/17 02:53:19;;;;;;;23.17;21.87;;;;;;;;;;5035089;28;20456;-80
2022/06/17 02:55:46;;;;;;;23.90;22.60;;;;;;;;;;5035159;28;20440;-80
2022/06/17 02:58:22;;;;;;;23.40;22.00;;;;;;;;;;5035093;28;20423;-80
2022/06/17 03:00:50;;;;;;;23.50;22.20;;;;;;;;;;5034755;28;20422;-80
2022/06/17 03:03:19;;;;;;;24.13;22.83;;;;;;;;;;5034978;28;20498;-80
2022/06/17 03:05:47;;;;;;;24.60;23.20;;;;;;;;;;5034618;28;20423;-80
2022/06/17 03:08:19;;;;;;;24.27;22.87;;;;;;;;;;5034457;28;20480;-80
2022/06/17 03:10:46;;;;;;;23.90;22.50;;;;;;;;;;5034896;28;20444;-80
2022/06/17 03:13:15;;;;;;;24.67;23.20;;;;;;;;;;5035043;28;20440;-80
2022/06/17 03:15:44;;;;;;;24.57;23.20;;;;;;;;;;5034738;28;20441;-80
2022/06/17 03:18:12;;;;;;;24.20;22.70;;;;;;;;;;5034448;28;20811;-80
2022/06/17 03:20:40;;;;;;;24.43;23.00;;;;;;;;;;5034556;28;20761;-80
2022/06/17 03:23:12;;;;;;;24.30;22.90;;;;;;;;;;5034470;28;20411;-80
2022/06/17 03:25:44;;;;;;;23.83;22.53;;;;;;;;;;5034326;28;20415;-80
2022/06/17 03:28:14;;;;;;;23.90;22.60;;;;;;;;;;5034459;28;20480;-79
2022/06/17 03:30:44;;;;;;;23.00;21.70;;;;;;;;;;5034236;28;20436;-80
2022/06/17 03:33:15;;;;;;;24.30;22.90;;;;;;;;;;5033953;28;20426;-80
2022/06/17 03:35:44;;;;;;;24.13;22.83;;;;;;;;;;5034198;28;20817;-80
2022/06/17 03:38:17;;;;;;;24.30;22.90;;;;;;;;;;5034201;28;20805;-80
2022/06/17 03:40:48;;;;;;;23.00;21.70;;;;;;;;;;5034348;28;20423;-79
2022/06/17 03:43:18;;;;;;;23.47;22.13;;;;;;;;;;5034264;28;20411;-79
2022/06/17 03:45:48;;;;;;;24.60;23.13;;;;;;;;;;5033927;28;20941;-81
2022/06/17 03:48:18;;;;;;;23.40;22.00;;;;;;;;;;5033885;28;20954;-80
2022/06/17 03:50:47;;;;;;;23.00;21.77;;;;;;;;;;5034167;28;20450;-81
2022/06/17 03:53:19;;;;;;;23.80;22.40;;;;;;;;;;5034017;28;20415;-80
2022/06/17 03:55:48;;;;;;;23.37;21.90;;;;;;;;;;5033989;28;20426;-81
2022/06/17 03:58:18;;;;;;;23.80;22.40;;;;;;;;;;5034028;28;20407;-80
2022/06/17 04:00:48;;;;;;;23.90;22.40;;;;;;;;;;5033704;28;20418;-80
2022/06/17 04:03:18;;;;;;;23.60;22.30;;;;;;;;;;5033868;28;20453;-80
2022/06/17 04:05:48;;;;;;;22.77;21.47;;;;;;;;;;5033587;28;20420;-79
2022/06/17 04:08:15;;;;;;;22.47;20.97;;;;;;;;;;5033602;28;20791;-79
2022/06/17 04:10:43;;;;;;;23.10;21.70;;;;;;;;;;5033352;28;20436;-79
2022/06/17 04:13:14;;;;;;;22.77;21.47;;;;;;;;;;5033527;28;20427;-80
2022/06/17 04:15:46;;;;;;;23.30;21.90;;;;;;;;;;5033367;28;20437;-80
2022/06/17 04:18:13;;;;;;;22.97;21.67;;;;;;;;;;5033553;28;20891;-79
2022/06/17 04:20:43;;;;;;;23.80;22.30;;;;;;;;;;5033238;28;20449;-79
2022/06/17 04:23:13;;;;;;;23.63;22.23;;;;;;;;;;5033166;28;20440;-80
2022/06/17 04:25:43;;;;;;;24.13;22.60;;;;;;;;;;5033382;28;20447;-79
2022/06/17 04:28:13;;;;;;;22.70;21.40;;;;;;;;;;5033075;28;20436;-79
2022/06/17 04:30:42;;;;;;;22.30;21.10;;;;;;;;;;5033312;28;20412;-80
2022/06/17 04:33:15;;;;;;;23.93;22.53;;;;;;;;;;5033452;28;20448;-79
2022/06/17 04:35:43;;;;;;;23.10;21.80;;;;;;;;;;5033315;28;20432;-80
2022/06/17 04:38:11;;;;;;;23.00;21.70;;;;;;;;;;5032820;28;20996;-79
2022/06/17 04:40:42;;;;;;;22.43;21.10;;;;;;;;;;5033155;28;20441;-79
2022/06/17 04:43:12;;;;;;;23.20;21.90;;;;;;;;;;5032540;28;20469;-79
2022/06/17 04:45:41;;;;;;;24.00;22.47;;;;;;;;;;5032875;28;20415;-80
2022/06/17 04:48:09;;;;;;;24.77;23.33;;;;;;;;;;5033081;28;20432;-79
2022/06/17 04:50:37;;;;;;;25.70;24.30;;;;;;;;;;5032720;28;20463;-79
2022/06/17 04:53:04;;;;;;;24.30;22.80;;;;;;;;;;5032620;28;21011;-79
2022/06/17 04:55:34;;;;;;;23.77;22.37;;;;;;;;;;5032679;28;20436;-79
2022/06/17 04:58:02;;;;;;;24.43;22.83;;;;;;;;;;5032939;28;20426;-79
2022/06/17 05:00:30;;;;;;;23.73;22.43;;;;;;;;;;5032608;28;20834;-79
2022/06/17 05:02:59;;;;;;;24.97;23.47;;;;;;;;;;5032831;28;20444;-79
2022/06/17 05:05:29;;;;;;;22.93;21.67;;;;;;;;;;5032895;28;20472;-79
2022/06/17 05:07:57;;;;;;;23.13;21.53;;;;;;;;;;5032718;28;20452;-79
2022/06/17 05:10:27;;;;;;;23.00;21.70;;;;;;;;;;5032742;28;20512;-79
2022/06/17 05:12:57;;;;;;;24.10;22.60;;;;;;;;;;5032661;28;20881;-79
2022/06/17 05:15:25;;;;;;;23.60;22.20;;;;;;;;;;5032473;28;20452;-79
2022/06/17 05:17:54;;;;;;;23.67;22.37;;;;;;;;;;5032621;28;20516;-80
2022/06/17 05:20:23;;;;;;;22.67;21.37;;;;;;;;;;5032434;28;20415;-79
2022/06/17 05:22:52;;;;;;;23.70;22.30;;;;;;;;;;5032299;28;20446;-79
2022/06/17 05:25:21;;;;;;;23.83;22.33;;;;;;;;;;5032491;28;20441;-79
2022/06/17 05:27:49;;;;;;;24.13;22.57;;;;;;;;;;5032360;28;20493;-76
2022/06/17 05:30:16;;;;;;;23.60;22.00;;;;;;;;;;5032486;28;20487;-76
2022/06/17 05:32:45;;;;;;;23.97;22.67;;;;;;;;;;5032798;28;20444;-82
2022/06/17 05:35:13;;;;;;;24.10;22.60;;;;;;;;;;5032375;28;20432;-80
2022/06/17 05:37:41;;;;;;;24.70;23.07;;;;;;;;;;5032199;28;20931;-79
2022/06/17 05:40:09;;;;;;;24.13;22.63;;;;;;;;;;5032097;28;20499;-81
2022/06/17 05:42:37;;;;;;;23.70;22.20;;;;;;;;;;5032189;28;20826;-81
2022/06/17 05:45:05;;;;;;;24.67;23.00;;;;;;;;;;5032278;28;20407;-81
2022/06/17 05:47:33;;;;;;;22.93;21.40;;;;;;;;;;5032215;28;20930;-81
2022/06/17 05:50:00;;;;;;;23.77;22.30;;;;;;;;;;5032050;28;20480;-81
2022/06/17 05:52:27;;;;;;;23.13;21.80;;;;;;;;;;5032243;28;20415;-80
2022/06/17 05:55:01;;;;;;;23.97;22.40;;;;;;;;;;5033533;28;20472;-81
2022/06/17 05:57:29;;;;;;;24.53;22.80;;;;;;;;;;5035977;28;20439;-80
2022/06/17 05:59:56;;;;;;;23.40;22.00;;;;;;;;;;5035941;28;20408;-81
2022/06/17 06:02:24;;;;;;;23.63;22.30;;;;;;;;;;5035750;28;20406;-80
2022/06/17 06:04:51;;;;;;;24.07;22.53;;;;;;;;;;5036177;28;20407;-80
2022/06/17 06:07:18;;;;;;;24.50;22.90;;;;;;;;;;5036088;28;20411;-80
2022/06/17 06:09:46;;;;;;;23.30;21.93;;;;;;;;;;5036045;28;20480;-80
2022/06/17 06:12:14;;;;;;;24.37;22.97;;;;;;;;;;5036088;28;20407;-80
2022/06/17 06:14:42;;;;;;;24.00;22.40;;;;;;;;;;5035912;28;20443;-79
2022/06/17 06:17:09;;;;;;;23.83;22.13;;;;;;;;;;5035659;28;20407;-78
2022/06/17 06:19:37;;;;;;;23.40;22.00;;;;;;;;;;5035591;28;20901;-78
2022/06/17 06:22:04;;;;;;;22.83;21.43;;;;;;;;;;5035730;28;20444;-79
2022/06/17 06:24:32;;;;;;;23.80;22.33;;;;;;;;;;5035718;28;20422;-78
2022/06/17 06:26:59;;;;;;;25.00;23.40;;;;;;;;;;5035314;28;20471;-79
2022/06/17 06:29:28;;;;;;;24.00;22.50;;;;;;;;;;5035550;28;20465;-79
2022/06/17 06:31:55;;;;;;;23.97;22.50;;;;;;;;;;5035344;28;20415;-78
2022/06/17 06:34:23;;;;;;;24.23;22.80;;;;;;;;;;5035438;28;20429;-79
2022/06/17 06:36:50;;;;;;;23.60;22.10;;;;;;;;;;5035145;28;20460;-78
2022/06/17 06:39:17;;;;;;;23.83;22.33;;;;;;;;;;5035150;28;20494;-78
2022/06/17 06:41:45;;;;;;;24.37;22.77;;;;;;;;;;5035242;28;20437;-78
2022/06/17 06:44:12;;;;;;;24.40;23.00;;;;;;;;;;5035014;28;20906;-78
2022/06/17 06:46:41;;;;;;;24.70;22.93;;;;;;;;;;5035036;28;20418;-78
2022/06/17 06:49:08;;;;;;;24.57;22.73;;;;;;;;;;5035263;28;20445;-79
2022/06/17 06:51:35;;;;;;;23.53;22.20;;;;;;;;;;5035161;28;20773;-80
2022/06/17 06:54:03;;;;;;;23.70;22.27;;;;;;;;;;5034890;28;20804;-80
2022/06/17 06:56:31;;;;;;;23.00;21.60;;;;;;;;;;5017093;28;20427;-81
2022/06/17 06:58:58;;;;;;;24.37;22.70;;;;;;;;;;5034928;28;20436;-79
2022/06/17 07:01:26;;;;;;;24.20;22.70;;;;;;;;;;5035133;28;20411;-80
2022/06/17 07:03:54;;;;;;;23.70;22.30;;;;;;;;;;5016875;28;20913;-80
2022/06/17 07:06:22;;;;;;;23.90;22.40;;;;;;;;;;5033513;28;20896;-80
2022/06/17 07:08:50;;;;;;;24.63;23.20;;;;;;;;;;5035123;28;20439;-80
2022/06/17 07:11:17;;;;;;;23.40;22.00;;;;;;;;;;5034323;28;20503;-79
2022/06/17 07:13:45;;;;;;;23.03;21.63;;;;;;;;;;5034652;28;20425;-80
2022/06/17 07:16:14;;;;;;;22.70;21.30;;;;;;;;;;5034807;28;20423;-79
2022/06/17 07:18:41;;;;;;;22.97;21.57;;;;;;;;;;5034400;28;20928;-80
2022/06/17 07:21:11;;;;;;;22.93;21.43;;;;;;;;;;5016948;28;20419;-79
2022/06/17 07:23:40;;;;;;;23.00;21.40;;;;;;;;;;5034636;28;20440;-79
2022/06/17 07:26:09;;;;;;;23.43;22.13;;;;;;;;;;5034728;28;20454;-80
2022/06/17 07:28:36;;;;;;;24.03;22.50;;;;;;;;;;5034622;28;20486;-79
2022/06/17 07:31:04;;;;;;;23.83;22.33;;;;;;;;;;5034559;28;20532;-78
2022/06/17 07:33:34;;;;;;;22.70;21.40;;;;;;;;;;5034107;28;20442;-80
2022/06/17 07:36:02;;;;;;;23.40;22.10;;;;;;;;;;5034498;28;20444;-80
2022/06/17 07:41:18;;;;;;;23.20;21.70;;;;;;;;;;5034122;28;20765;-80
2022/06/17 07:43:46;;;;;;;23.53;22.20;;;;;;;;;;5033984;28;20799;-80
2022/06/17 07:46:13;;;;;;;24.07;22.50;;;;;;;;;;5034035;28;20434;-80
2022/06/17 07:48:41;;;;;;;23.40;22.10;;;;;;;;;;5034124;28;20406;-80
2022/06/17 07:51:09;;;;;;;23.93;22.53;;;;;;;;;;5033676;28;20959;-83
2022/06/17 07:53:41;;;;;;;23.63;22.33;;;;;;;;;;5034169;28;20415;-81
2022/06/17 07:56:08;;;;;;;23.87;22.43;;;;;;;;;;5034065;28;20449;-81
2022/06/17 07:58:36;;;;;;;22.87;21.57;;;;;;;;;;5033718;28;20443;-81
2022/06/17 08:01:04;;;;;;;24.90;23.40;;;;;;;;;;5030273;28;20444;-80
2022/06/17 08:03:31;;;;;;;25.00;23.23;;;;;;;;;;5018737;28;20971;-81
2022/06/17 08:06:01;;;;;;;24.93;23.37;;;;;;;;;;5013798;28;20449;-80
2022/06/17 08:08:28;;;;;;;25.00;23.20;;;;;;;;;;5013521;28;20462;-80
2022/06/17 08:10:59;;;;;;;25.23;23.63;;;;;;;;;;5013946;28;20467;-81
2022/06/17 08:13:26;;;;;;;25.10;23.50;;;;;;;;;;5013813;28;20427;-81
2022/06/17 08:15:55;;;;;;;24.50;23.10;;;;;;;;;;5013638;28;20419;-81
2022/06/17 08:18:23;;;;;;;25.67;24.17;;;;;;;;;;5013141;28;20449;-80
2022/06/17 08:20:50;;;;;;;25.13;23.53;;;;;;;;;;5013766;28;20464;-80
2022/06/17 08:23:18;;;;;;;24.80;23.30;;;;;;;;;;5013490;28;20450;-81
2022/06/17 08:25:45;;;;;;;25.40;23.70;;;;;;;;;;5013183;28;20941;-81
2022/06/17 08:28:14;;;;;;;25.37;23.73;;;;;;;;;;5013501;28;20424;-81
2022/06/17 08:30:42;;;;;;;24.17;22.67;;;;;;;;;;5013548;28;20475;-81
2022/06/17 08:33:10;;;;;;;25.40;23.40;;;;;;;;;;5013171;28;20415;-80
2022/06/17 08:35:40;;;;;;;25.27;23.57;;;;;;;;;;4995686;28;20427;-81
2022/06/17 08:38:09;;;;;;;25.60;23.90;;;;;;;;;;5012924;28;20448;-81
2022/06/17 08:40:39;;;;;;;25.43;23.93;;;;;;;;;;5013664;28;20763;-80
2022/06/17 08:43:17;;;;;;;25.73;23.93;;;;;;;;;;5013052;28;20452;-80
2022/06/17 08:45:48;;;;;;;24.73;23.13;;;;;;;;;;5013154;28;20408;-82
2022/06/17 08:48:20;;;;;;;26.13;24.43;;;;;;;;;;5013703;28;20444;-84
2022/06/17 08:50:55;;;;;;;26.10;24.20;;;;;;;;;;5013138;28;20543;-83
2022/06/17 08:53:42;;;;;;;26.27;24.57;;;;;;;;;;5013410;28;20442;-82
2022/06/17 08:56:14;;;;;;;25.07;23.47;;;;;;;;;;5013277;28;20777;-81
2022/06/17 08:58:47;;;;;;;25.50;23.80;;;;;;;;;;5013154;28;20465;-81
2022/06/17 09:01:22;;;;;;;26.03;24.33;;;;;;;;;;5012915;28;20842;-75
2022/06/17 09:03:57;;;;;;;27.00;25.20;;;;;;;;;;5027533;28;20938;-74
2022/06/17 09:06:32;;;;;;;25.73;24.00;;;;;;;;;;5032166;28;20436;-74
2022/06/17 09:09:05;;;;;;;25.60;24.07;;;;;;;;;;5032296;28;20513;-74
2022/06/17 09:11:38;;;;;;;26.43;24.63;;;;;;;;;;5032572;28;20466;-74
2022/06/17 09:14:13;;;;;;;25.90;24.03;;;;;;;;;;5032658;28;20441;-74
2022/06/17 09:16:47;;;;;;;26.40;24.70;;;;;;;;;;5032377;28;20432;-75
2022/06/17 09:19:16;;;;;;;26.87;25.20;;;;;;;;;;5032749;28;20441;-75
2022/06/17 09:21:47;;;;;;;25.40;23.90;;;;;;;;;;5017190;28;20792;-75
2022/06/17 09:24:18;;;;;;;25.27;23.57;;;;;;;;;;5012858;28;20447;-74
2022/06/17 09:26:47;;;;;;;24.10;22.50;;;;;;;;;;5012682;28;20478;-73
2022/06/17 09:29:16;;;;;;;24.53;22.73;;;;;;;;;;5012766;28;20957;-82
2022/06/17 09:31:47;;;;;;;25.20;23.60;;;;;;;;;;5016746;28;20484;-81
2022/06/17 09:34:18;;;;;;;25.57;23.87;;;;;;;;;;5016459;28;20905;-76
2022/06/17 09:36:48;;;;;;;25.80;24.07;;;;;;;;;;5016241;28;20770;-75
2022/06/17 09:39:18;;;;;;;25.37;23.77;;;;;;;;;;5016416;28;20465;-75
2022/06/17 09:41:47;;;;;;;25.13;23.63;;;;;;;;;;5016635;28;20412;-75
2022/06/17 09:44:17;;;;;;;25.03;23.43;;;;;;;;;;5016249;28;20443;-75
2022/06/17 09:46:48;;;;;;;24.43;22.93;;;;;;;;;;5016580;28;20441;-76
2022/06/17 09:49:17;;;;;;;23.83;22.30;;;;;;;;;;5015943;28;20453;-75
2022/06/17 09:51:47;;;;;;;23.77;22.27;;;;;;;;;;5016068;28;20485;-76
2022/06/17 09:54:17;;;;;;;23.37;22.00;;;;;;;;;;5016579;28;20444;-75
2022/06/17 09:56:47;;;;;;;24.47;22.97;;;;;;;;;;5019099;28;20959;-75
2022/06/17 09:59:17;;;;;;;24.53;23.03;;;;;;;;;;5036061;28;20445;-76
2022/06/17 10:01:47;;;;;;;24.97;23.37;;;;;;;;;;5035779;28;20407;-76
2022/06/17 10:04:15;;;;;;;25.00;23.40;;;;;;;;;;5036088;28;20415;-76
2022/06/17 10:06:47;;;;;;;25.13;23.63;;;;;;;;;;5035284;28;20475;-76
2022/06/17 10:09:22;;;;;;;25.13;23.30;;;;;;;;;;5035662;28;20410;-76
2022/06/17 10:11:51;;;;;;;25.03;23.30;;;;;;;;;;5035298;28;20453;-77
2022/06/17 10:14:23;;;;;;;24.47;23.07;;;;;;;;;;5035523;28;20444;-75
2022/06/17 10:19:47;;;;;;;23.10;21.80;;;;;;;;;;5035605;28;20394;-76
2022/06/17 10:22:27;;;;;;;22.50;21.10;;;;;;;;;;5035595;28;20493;-76
2022/06/17 10:25:00;;;;;;;23.77;22.17;;;;;;;;;;5035523;28;20438;-76
2022/06/17 10:27:42;;;;;;;23.93;22.53;;;;;;;;;;5035577;28;20437;-76
2022/06/17 10:30:12;;;;;;;24.20;22.90;;;;;;;;;;5035211;28;20921;-76
2022/06/17 10:32:43;;;;;;;25.10;23.60;;;;;;;;;;5035640;28;20496;-76
2022/06/17 10:35:15;;;;;;;24.50;23.10;;;;;;;;;;5035165;28;20410;-75
2022/06/17 10:37:43;;;;;;;24.73;23.27;;;;;;;;;;5035188;28;20434;-76
2022/06/17 10:40:11;;;;;;;25.03;23.60;;;;;;;;;;5034742;28;20462;-75
2022/06/17 10:42:38;;;;;;;25.37;23.77;;;;;;;;;;5035482;28;20432;-76
2022/06/17 10:45:11;;;;;;;24.30;22.90;;;;;;;;;;5035043;28;20436;-76
2022/06/17 10:47:41;;;;;;;23.60;22.30;;;;;;;;;;5035010;28;20407;-76
2022/06/17 10:50:17;;;;;;;24.43;23.10;;;;;;;;;;5035312;28;20415;-76
2022/06/17 10:52:48;;;;;;;23.60;22.20;;;;;;;;;;5035026;28;20449;-76
2022/06/17 10:55:17;;;;;;;24.03;22.73;;;;;;;;;;5035233;28;20415;-76
2022/06/17 10:58:05;;;;;;;23.30;22.00;;;;;;;;;;5024197;28;20412;-76
2022/06/17 11:00:34;;;;;;;24.00;22.50;;;;;;;;;;5015376;28;20404;-76
2022/06/17 11:03:16;;;;;;;23.37;22.07;;;;;;;;;;5014834;28;20449;-76
2022/06/17 11:05:52;;;;;;;23.40;21.93;;;;;;;;;;5014923;28;20444;-77
2022/06/17 11:08:21;;;;;;;23.67;22.37;;;;;;;;;;5014931;28;20429;-76
2022/06/17 11:10:52;;;;;;;24.20;22.87;;;;;;;;;;5015291;28;20485;-77
2022/06/17 11:13:21;;;;;;;23.50;22.20;;;;;;;;;;4997072;28;20419;-75
2022/06/17 11:15:50;;;;;;;22.83;21.53;;;;;;;;;;5015126;28;20423;-76
2022/06/17 11:18:18;;;;;;;24.03;22.73;;;;;;;;;;5015037;28;20423;-80
2022/06/17 11:20:56;;;;;;;23.47;22.17;;;;;;;;;;5014709;28;20445;-80
2022/06/17 11:23:24;;;;;;;24.10;22.80;;;;;;;;;;5014836;28;20436;-82
2022/06/17 11:25:55;;;;;;;23.83;22.53;;;;;;;;;;5014432;28;20460;-75
2022/06/17 11:28:24;;;;;;;23.33;21.93;;;;;;;;;;5014843;28;20437;-77
2022/06/17 11:30:53;;;;;;;24.97;23.60;;;;;;;;;;5014662;28;20496;-75
2022/06/17 11:33:25;;;;;;;24.97;23.67;;;;;;;;;;5014196;28;20488;-75
2022/06/17 11:36:01;;;;;;;23.50;22.20;;;;;;;;;;5014234;28;20778;-82
2022/06/17 11:38:29;;;;;;;23.13;21.73;;;;;;;;;;5014120;28;20475;-76
2022/06/17 11:40:57;;;;;;;23.87;22.57;;;;;;;;;;5014563;28;20426;-76
2022/06/17 11:43:29;;;;;;;23.70;22.40;;;;;;;;;;5014345;28;20444;-77
2022/06/17 11:45:57;;;;;;;24.10;22.70;;;;;;;;;;5014187;28;20851;-76
2022/06/17 11:48:24;;;;;;;24.53;23.13;;;;;;;;;;5014425;28;20419;-77
2022/06/17 11:51:05;;;;;;;23.60;22.30;;;;;;;;;;5014008;28;20485;-78
2022/06/17 11:53:33;;;;;;;22.77;21.47;;;;;;;;;;5013027;28;20408;-79
2022/06/17 11:56:00;;;;;;;23.33;22.00;;;;;;;;;;5014027;28;20416;-76
2022/06/17 11:58:32;;;;;;;22.50;21.20;;;;;;;;;;5030607;28;20415;-77
2022/06/17 12:01:12;;;;;;;23.77;22.27;;;;;;;;;;5033182;28;20475;-75
2022/06/17 12:03:41;;;;;;;23.73;22.33;;;;;;;;;;5033396;28;20944;-76
2022/06/17 12:06:21;;;;;;;24.00;22.50;;;;;;;;;;5033456;28;20465;-77
2022/06/17 12:08:50;;;;;;;23.60;22.10;;;;;;;;;;5033683;28;20440;-77
2022/06/17 12:11:21;;;;;;;23.73;22.23;;;;;;;;;;5033427;28;20462;-77
2022/06/17 12:13:50;;;;;;;23.70;22.30;;;;;;;;;;5033717;28;20432;-77
2022/06/17 12:16:22;;;;;;;23.93;22.53;;;;;;;;;;5033722;28;20447;-77
2022/06/17 12:18:51;;;;;;;22.70;21.40;;;;;;;;;;5033579;28;20411;-77
2022/06/17 12:21:28;;;;;;;23.70;22.30;;;;;;;;;;5033273;28;20527;-78
2022/06/17 12:24:00;;;;;;;23.43;22.13;;;;;;;;;;5033270;28;20534;-78
2022/06/17 12:26:29;;;;;;;24.47;22.97;;;;;;;;;;5033470;28;20436;-77
2022/06/17 12:29:02;;;;;;;23.83;22.43;;;;;;;;;;5033086;28;20415;-77
2022/06/17 12:31:34;;;;;;;23.93;22.53;;;;;;;;;;5033004;28;20886;-78
2022/06/17 12:34:06;;;;;;;23.17;21.80;;;;;;;;;;5032903;28;20423;-77
2022/06/17 12:36:38;;;;;;;24.57;23.10;;;;;;;;;;5033057;28;20410;-77
2022/06/17 12:39:09;;;;;;;24.53;22.97;;;;;;;;;;5032783;28;20442;-77
2022/06/17 12:41:39;;;;;;;23.13;21.73;;;;;;;;;;5032917;28;20459;-77
2022/06/17 12:44:15;;;;;;;23.43;22.03;;;;;;;;;;5033059;28;20426;-78
2022/06/17 12:46:45;;;;;;;23.30;21.90;;;;;;;;;;5032853;28;20501;-77
2022/06/17 12:54:54;;;;;;;23.63;22.23;;;;;;;;;;5032896;28;21031;-77
2022/06/17 12:57:25;;;;;;;22.70;21.40;;;;;;;;;;5024967;28;20445;-78
2022/06/17 12:59:57;;;;;;;23.63;22.33;;;;;;;;;;5012792;28;20424;-75
2022/06/17 13:02:27;;;;;;;23.20;21.80;;;;;;;;;;5013017;28;20419;-77
2022/06/17 13:05:05;;;;;;;24.40;23.00;;;;;;;;;;5012809;28;20441;-76
2022/06/17 13:07:40;;;;;;;23.60;22.30;;;;;;;;;;5012795;28;20415;-76
2022/06/17 13:12:59;;;;;;;23.50;22.10;;;;;;;;;;5012618;28;20496;-76
2022/06/17 13:15:27;;;;;;;23.73;22.33;;;;;;;;;;5012997;28;20496;-77
2022/06/17 13:17:58;;;;;;;23.70;22.30;;;;;;;;;;5012396;28;20763;-77
2022/06/17 13:20:29;;;;;;;23.70;22.30;;;;;;;;;;5012985;28;20423;-76
2022/06/17 13:23:01;;;;;;;24.00;22.40;;;;;;;;;;5012737;28;20804;-76
2022/06/17 13:25:32;;;;;;;23.27;21.87;;;;;;;;;;5012784;28;20464;-76
2022/06/17 13:28:01;;;;;;;22.50;21.20;;;;;;;;;;5012851;28;20416;-77
2022/06/17 13:30:32;;;;;;;23.17;21.77;;;;;;;;;;5015386;28;20748;-76
2022/06/17 13:33:04;;;;;;;24.00;22.60;;;;;;;;;;5012641;28;20459;-77
2022/06/17 13:35:33;;;;;;;23.13;21.73;;;;;;;;;;5012757;28;20435;-77
2022/06/17 13:38:06;;;;;;;23.37;21.77;;;;;;;;;;5012263;28;20818;-76
2022/06/17 13:40:36;;;;;;;23.10;21.70;;;;;;;;;;5012304;28;20416;-75
2022/06/17 13:43:05;;;;;;;22.63;21.23;;;;;;;;;;5012267;28;20415;-77
2022/06/17 13:45:40;;;;;;;22.93;21.53;;;;;;;;;;5012314;28;20416;-77
2022/06/17 13:48:10;;;;;;;22.33;21.03;;;;;;;;;;5012343;28;20846;-76
2022/06/17 13:50:42;;;;;;;22.70;21.30;;;;;;;;;;5012310;28;20445;-79
2022/06/17 13:53:16;;;;;;;22.10;20.70;;;;;;;;;;5012247;28;20458;-78
2022/06/17 13:55:48;;;;;;;21.20;19.90;;;;;;;;;;5012405;28;20444;-78
2022/06/17 13:58:20;;;;;;;21.83;20.53;;;;;;;;;;5027262;28;20436;-78
2022/06/17 14:00:49;;;;;;;22.80;21.40;;;;;;;;;;5032225;28;20450;-78
2022/06/17 14:03:18;;;;;;;23.40;21.93;;;;;;;;;;5031783;28;20886;-79
2022/06/17 14:06:08;;;;;;;23.20;21.70;;;;;;;;;;5032194;28;20429;-79
2022/06/17 14:08:53;;;;;;;23.20;21.83;;;;;;;;;;5031828;28;20791;-78
2022/06/17 14:11:34;;;;;;;24.17;22.70;;;;;;;;;;5031666;28;20464;-79
2022/06/17 14:14:21;;;;;;;23.63;22.23;;;;;;;;;;5031735;28;20472;-78
2022/06/17 14:16:57;;;;;;;24.00;22.50;;;;;;;;;;5034476;28;20894;-79
2022/06/17 14:19:27;;;;;;;23.20;21.80;;;;;;;;;;5035422;28;20435;-79
2022/06/17 14:21:55;;;;;;;23.43;21.93;;;;;;;;;;5035738;28;20424;-79
2022/06/17 14:24:37;;;;;;;22.50;21.10;;;;;;;;;;5035679;28;20486;-79
2022/06/17 14:27:06;;;;;;;23.43;22.03;;;;;;;;;;5034710;28;20438;-79
2022/06/17 14:29:34;;;;;;;22.20;20.90;;;;;;;;;;5035662;28;20502;-79
2022/06/17 14:32:03;;;;;;;22.73;21.33;;;;;;;;;;5035202;28;20466;-79
2022/06/17 14:34:55;;;;;;;22.97;21.57;;;;;;;;;;5035455;28;20407;-79
2022/06/17 14:37:37;;;;;;;23.47;21.90;;;;;;;;;;5035022;28;20467;-79
2022/06/17 14:40:07;;;;;;;23.43;22.03;;;;;;;;;;5034307;28;20476;-79
2022/06/17 14:42:47;;;;;;;23.40;22.00;;;;;;;;;;5035076;28;20414;-79
2022/06/17 14:45:38;;;;;;;24.00;22.50;;;;;;;;;;5034943;28;20450;-79
2022/06/17 14:48:20;;;;;;;22.07;20.70;;;;;;;;;;5035282;28;20411;-78